createdAt,value
2022-09-09T00:00:22.174Z,98263.56
2022-09-09T00:02:28.803Z,98264.72
2022-09-09T00:04:37.300Z,98260.28
2022-09-09T00:06:51.502Z,98253.94
2022-09-09T00:09:11.505Z,98256.19
2022-09-09T00:11:20.464Z,98258.44
2022-09-09T00:13:50.047Z,98251.59
2022-09-09T00:16:00.916Z,98256.31
2022-09-09T00:18:37.002Z,98249.13
2022-09-09T00:21:07.221Z,98245.59
2022-09-09T00:23:20.600Z,98246.69
2022-09-09T00:25:35.469Z,98248.13
2022-09-09T00:27:48.790Z,98251.72
2022-09-09T00:29:58.607Z,98258.06
2022-09-09T00:32:06.626Z,98251.72
2022-09-09T00:34:24.196Z,98250.56
2022-09-09T00:36:30.797Z,98251.41
2022-09-09T00:38:37.975Z,98252.22
2022-09-09T00:40:51.624Z,98253.34
2022-09-09T00:43:01.895Z,98242.28
2022-09-09T00:45:26.822Z,98245.59
2022-09-09T00:47:45.384Z,98243.31
2022-09-09T00:50:12.002Z,98240.56
2022-09-09T00:52:32.907Z,98248.03
2022-09-09T00:54:53.374Z,98242.19
2022-09-09T00:57:24.842Z,98244.66
2022-09-09T01:00:04.973Z,98242.19
2022-09-09T01:02:31.646Z,98250.47
2022-09-09T01:04:37.603Z,98251.00
2022-09-09T01:06:42.471Z,98249.84
2022-09-09T01:08:53.860Z,98242.72
2022-09-09T01:10:58.867Z,98237.97
2022-09-09T01:13:14.719Z,98236.88
2022-09-09T01:15:25.628Z,98238.81
2022-09-09T01:17:34.260Z,98241.28
2022-09-09T01:19:57.392Z,98246.78
2022-09-09T01:22:11.098Z,98239.31
2022-09-09T01:24:37.629Z,98242.06
2022-09-09T01:26:52.009Z,98248.75
2022-09-09T01:29:00.554Z,98244.03
2022-09-09T01:31:18.342Z,98247.09
2022-09-09T01:33:21.926Z,98238.81
2022-09-09T01:35:33.775Z,98244.34
2022-09-09T01:37:36.829Z,98248.22
2022-09-09T01:39:44.226Z,98248.53
2022-09-09T01:41:49.274Z,98248.22
2022-09-09T01:43:55.746Z,98254.03
2022-09-09T01:46:02.109Z,98250.16
2022-09-09T01:48:04.339Z,98248.84
2022-09-09T01:50:19.556Z,98248.84
2022-09-09T01:52:21.540Z,98240.06
2022-09-09T01:54:25.272Z,98241.69
2022-09-09T01:56:31.024Z,98238.09
2022-09-09T01:58:35.141Z,98241.69
2022-09-09T02:00:44.125Z,98242.81
2022-09-09T02:02:56.166Z,98229.81
2022-09-09T02:05:18.520Z,98235.66
2022-09-09T02:07:41.655Z,98240.06
2022-09-09T02:10:03.638Z,98238.41
2022-09-09T02:12:15.786Z,98246.19
2022-09-09T02:14:28.727Z,98241.50
2022-09-09T02:16:49.017Z,98242.28
2022-09-09T02:19:14.788Z,98243.13
2022-09-09T02:21:32.912Z,98241.19
2022-09-09T02:23:36.617Z,98240.84
2022-09-09T02:25:43.319Z,98236.16
2022-09-09T02:27:59.704Z,98245.25
2022-09-09T02:30:03.203Z,98240.25
2022-09-09T02:32:22.848Z,98246.59
2022-09-09T02:34:26.215Z,98252.59
2022-09-09T02:36:32.098Z,98247.91
2022-09-09T02:38:38.672Z,98239.63
2022-09-09T02:40:44.278Z,98250.66
2022-09-09T02:42:50.626Z,98247.59
2022-09-09T02:44:54.123Z,98244.03
2022-09-09T02:47:10.632Z,98238.19
2022-09-09T02:49:41.493Z,98237.38
2022-09-09T02:51:44.490Z,98231.84
2022-09-09T02:53:46.791Z,98243.44
2022-09-09T02:56:02.141Z,98237.91
2022-09-09T02:58:11.099Z,98241.50
2022-09-09T03:00:16.614Z,98240.38
2022-09-09T03:02:20.488Z,98245.06
2022-09-09T03:04:27.871Z,98247.50
2022-09-09T03:06:29.645Z,98243.13
2022-09-09T03:08:41.648Z,98253.03
2022-09-09T03:10:43.680Z,98244.75
2022-09-09T03:12:52.703Z,98244.75
2022-09-09T03:14:54.503Z,98240.06
2022-09-09T03:17:02.028Z,98240.56
2022-09-09T03:19:07.323Z,98233.09
2022-09-09T03:21:09.545Z,98231.97
2022-09-09T03:23:16.078Z,98233.59
2022-09-09T03:25:19.079Z,98230.84
2022-09-09T03:27:21.444Z,98235.25
2022-09-09T03:29:25.726Z,98232.47
2022-09-09T03:31:31.301Z,98235.75
2022-09-09T03:33:37.604Z,98231.88
2022-09-09T03:35:47.172Z,98226.03
2022-09-09T03:37:49.307Z,98223.25
2022-09-09T03:39:53.645Z,98222.13
2022-09-09T03:41:55.454Z,98220.22
2022-09-09T03:43:57.576Z,98219.06
2022-09-09T03:46:01.262Z,98223.47
2022-09-09T03:48:06.396Z,98220.69
2022-09-09T03:50:10.695Z,98221.53
2022-09-09T03:52:20.433Z,98231.41
2022-09-09T03:54:26.096Z,98221.19
2022-09-09T03:56:27.941Z,98217.31
2022-09-09T03:58:30.746Z,98217.31
2022-09-09T04:00:43.409Z,98220.88
2022-09-09T04:02:46.085Z,98207.91
2022-09-09T04:04:50.542Z,98217.50
2022-09-09T04:06:52.851Z,98216.69
2022-09-09T04:08:55.999Z,98209.22
2022-09-09T04:10:59.435Z,98211.16
2022-09-09T04:13:02.624Z,98218.31
2022-09-09T04:15:04.924Z,98218.31
2022-09-09T04:17:07.437Z,98211.69
2022-09-09T04:19:09.433Z,98222.41
2022-09-09T04:21:12.205Z,98223.22
2022-09-09T04:23:17.633Z,98230.69
2022-09-09T04:25:19.393Z,98225.50
2022-09-09T04:27:20.946Z,98232.34
2022-09-09T04:29:22.531Z,98226.00
2022-09-09T04:31:26.669Z,98224.84
2022-09-09T04:33:32.166Z,98218.81
2022-09-09T04:35:35.101Z,98222.91
2022-09-09T04:37:36.726Z,98218.53
2022-09-09T04:39:38.411Z,98219.31
2022-09-09T04:41:41.104Z,98222.59
2022-09-09T04:43:45.392Z,98225.38
2022-09-09T04:45:53.433Z,98219.03
2022-09-09T04:48:01.119Z,98228.13
2022-09-09T04:50:02.667Z,98233.66
2022-09-09T04:52:04.881Z,98234.44
2022-09-09T04:54:08.655Z,98228.91
2022-09-09T04:56:14.353Z,98228.13
2022-09-09T04:58:22.657Z,98234.44
2022-09-09T05:00:28.645Z,98233.66
2022-09-09T05:02:31.759Z,98240.28
2022-09-09T05:04:34.263Z,98252.97
2022-09-09T05:06:37.490Z,98252.97
2022-09-09T05:08:41.591Z,98253.78
2022-09-09T05:10:43.981Z,98247.47
2022-09-09T05:12:55.105Z,98260.44
2022-09-09T05:15:00.201Z,98261.28
2022-09-09T05:17:01.777Z,98260.13
2022-09-09T05:19:04.185Z,98264.03
2022-09-09T05:21:21.537Z,98267.59
2022-09-09T05:23:26.424Z,98266.78
2022-09-09T05:25:28.250Z,98265.97
2022-09-09T05:27:33.857Z,98262.06
2022-09-09T05:29:35.428Z,98267.28
2022-09-09T05:31:40.255Z,98268.41
2022-09-09T05:33:50.266Z,98268.91
2022-09-09T05:35:59.490Z,98266.16
2022-09-09T05:38:01.554Z,98263.38
2022-09-09T05:40:04.069Z,98267.47
2022-09-09T05:42:06.213Z,98266.34
2022-09-09T05:44:08.910Z,98274.31
2022-09-09T05:46:26.018Z,98277.41
2022-09-09T05:48:30.925Z,98272.09
2022-09-09T05:50:32.935Z,98273.69
2022-09-09T05:52:34.544Z,98280.88
2022-09-09T05:54:40.404Z,98286.06
2022-09-09T05:56:42.560Z,98285.78
2022-09-09T05:58:45.535Z,98285.44
2022-09-09T06:00:48.298Z,98282.38
2022-09-09T06:02:53.810Z,98282.38
2022-09-09T06:05:00.443Z,98279.31
2022-09-09T06:07:03.779Z,98281.75
2022-09-09T06:09:07.742Z,98275.94
2022-09-09T06:11:40.622Z,98279.47
2022-09-09T06:13:43.376Z,98281.13
2022-09-09T06:15:53.296Z,98281.63
2022-09-09T06:17:58.628Z,98275.47
2022-09-09T06:20:00.598Z,98277.91
2022-09-09T06:22:02.463Z,98279.56
2022-09-09T06:24:08.209Z,98281.72
2022-09-09T06:26:18.953Z,98277.50
2022-09-09T06:28:21.878Z,98268.88
2022-09-09T06:30:24.133Z,98270.19
2022-09-09T06:32:27.969Z,98275.94
2022-09-09T06:34:29.958Z,98268.13
2022-09-09T06:36:35.996Z,98263.94
2022-09-09T06:38:38.612Z,98267.38
2022-09-09T06:40:40.872Z,98270.66
2022-09-09T06:42:43.517Z,98276.41
2022-09-09T06:45:08.126Z,98270.25
2022-09-09T06:47:17.293Z,98278.72
2022-09-09T06:49:19.006Z,98276.16
2022-09-09T06:51:23.359Z,98281.84
2022-09-09T06:53:25.202Z,98282.03
2022-09-09T06:55:36.295Z,98281.09
2022-09-09T06:57:38.179Z,98289.56
2022-09-09T06:59:53.915Z,98289.75
2022-09-09T07:01:56.522Z,98286.06
2022-09-09T07:04:00.249Z,98294.22
2022-09-09T07:06:02.426Z,98294.06
2022-09-09T07:08:04.214Z,98297.00
2022-09-09T07:10:06.238Z,98292.50
2022-09-09T07:12:08.538Z,98290.72
2022-09-09T07:14:14.822Z,98295.78
2022-09-09T07:16:21.395Z,98298.09
2022-09-09T07:18:23.194Z,98304.81
2022-09-09T07:20:24.880Z,98300.09
2022-09-09T07:22:29.665Z,98303.44
2022-09-09T07:24:31.895Z,98295.66
2022-09-09T07:26:34.344Z,98302.84
2022-09-09T07:28:38.431Z,98295.38
2022-09-09T07:30:44.094Z,98292.63
2022-09-09T07:32:45.821Z,98287.94
2022-09-09T07:34:48.002Z,98289.88
2022-09-09T07:36:50.174Z,98294.63
2022-09-09T07:38:56.578Z,98291.56
2022-09-09T07:41:07.908Z,98295.47
2022-09-09T07:43:11.647Z,98301.03
2022-09-09T07:45:15.328Z,98297.09
2022-09-09T07:47:21.163Z,98294.31
2022-09-09T07:49:30.929Z,98296.75
2022-09-09T07:51:40.584Z,98295.25
2022-09-09T07:53:42.209Z,98295.72
2022-09-09T07:55:44.226Z,98292.94
2022-09-09T07:57:46.109Z,98287.53
2022-09-09T07:59:48.252Z,98300.72
2022-09-09T08:01:55.693Z,98290.06
2022-09-09T08:04:03.112Z,98289.69
2022-09-09T08:06:10.705Z,98296.84
2022-09-09T08:08:12.211Z,98297.28
2022-09-09T08:10:15.514Z,98294.59
2022-09-09T08:12:17.789Z,98308.63
2022-09-09T08:14:21.479Z,98293.19
2022-09-09T08:16:29.510Z,98304.88
2022-09-09T08:18:31.800Z,98300.19
2022-09-09T08:20:36.435Z,98307.13
2022-09-09T08:22:38.745Z,98306.53
2022-09-09T08:24:40.674Z,98300.69
2022-09-09T08:26:50.324Z,98291.34
2022-09-09T08:28:56.763Z,98301.97
2022-09-09T08:31:16.067Z,98301.41
2022-09-09T08:33:19.094Z,98303.31
2022-09-09T08:35:21.545Z,98301.59
2022-09-09T08:37:24.341Z,98301.84
2022-09-09T08:39:26.084Z,98308.00
2022-09-09T08:41:34.400Z,98306.59
2022-09-09T08:43:36.393Z,98310.75
2022-09-09T08:45:58.040Z,98308.81
2022-09-09T08:48:02.697Z,98308.09
2022-09-09T08:50:36.422Z,98314.13
2022-09-09T08:53:11.321Z,98306.56
2022-09-09T08:55:39.796Z,98301.41
2022-09-09T08:57:42.268Z,98297.38
2022-09-09T08:59:43.754Z,98296.03
2022-09-09T09:02:02.609Z,98295.50
2022-09-09T09:04:33.722Z,98300.19
2022-09-09T09:06:50.858Z,98301.28
2022-09-09T09:09:05.862Z,98305.88
2022-09-09T09:11:07.508Z,98298.47
2022-09-09T09:13:18.300Z,98296.94
2022-09-09T09:15:29.497Z,98300.19
2022-09-09T09:17:34.508Z,98292.22
2022-09-09T09:19:39.200Z,98292.41
2022-09-09T09:21:40.919Z,98296.63
2022-09-09T09:23:59.887Z,98294.91
2022-09-09T09:26:15.754Z,98296.03
2022-09-09T09:28:25.262Z,98296.81
2022-09-09T09:31:02.620Z,98288.72
2022-09-09T09:33:29.245Z,98289.03
2022-09-09T09:35:32.041Z,98288.88
2022-09-09T09:37:36.582Z,98292.25
2022-09-09T09:42:18.817Z,98278.09
2022-09-09T09:44:27.734Z,98277.31
2022-09-09T09:46:31.280Z,98280.59
2022-09-09T09:48:44.000Z,98275.75
2022-09-09T09:50:53.060Z,98270.53
2022-09-09T09:53:01.062Z,98273.34
2022-09-09T09:55:13.472Z,98267.31
2022-09-09T09:57:17.225Z,98264.06
2022-09-09T09:59:43.682Z,98273.56
2022-09-09T10:01:54.339Z,98265.53
2022-09-09T10:04:01.497Z,98265.13
2022-09-09T10:06:03.500Z,98266.72
2022-09-09T10:08:17.797Z,98256.72
2022-09-09T10:10:27.058Z,98261.19
2022-09-09T10:12:47.285Z,98256.03
2022-09-09T10:15:13.401Z,98255.72
2022-09-09T10:17:30.467Z,98256.59
2022-09-09T10:19:37.458Z,98253.53
2022-09-09T10:22:02.348Z,98255.19
2022-09-09T10:24:17.237Z,98248.97
2022-09-09T10:26:26.691Z,98253.22
2022-09-09T10:28:48.405Z,98255.00
2022-09-09T10:31:18.437Z,98256.84
2022-09-09T10:33:45.973Z,98253.09
2022-09-09T10:36:13.144Z,98243.75
2022-09-09T10:38:21.815Z,98226.78
2022-09-09T10:40:46.454Z,98225.03
2022-09-09T10:42:48.102Z,98229.28
2022-09-09T10:45:19.471Z,98223.03
2022-09-09T10:47:42.800Z,98235.16
2022-09-09T10:49:53.206Z,98229.56
2022-09-09T10:52:17.264Z,98225.53
2022-09-09T10:55:03.209Z,98223.06
2022-09-09T10:57:37.742Z,98229.03
2022-09-09T10:59:48.571Z,98231.41
2022-09-09T11:02:04.687Z,98234.16
2022-09-09T11:04:25.290Z,98229.72
2022-09-09T11:06:35.813Z,98226.06
2022-09-09T11:08:40.767Z,98222.84
2022-09-09T11:10:57.882Z,98227.22
2022-09-09T11:13:07.018Z,98225.66
2022-09-09T11:15:22.121Z,98226.53
2022-09-09T11:17:32.791Z,98231.03
2022-09-09T11:19:37.782Z,98213.88
2022-09-09T11:21:46.814Z,98218.88
2022-09-09T11:23:58.625Z,98219.41
2022-09-09T11:26:08.442Z,98217.50
2022-09-09T11:28:33.362Z,98210.78
2022-09-09T11:30:57.380Z,98214.09
2022-09-09T11:33:30.182Z,98206.88
2022-09-09T11:35:57.056Z,98204.44
2022-09-09T11:38:20.507Z,98206.00
2022-09-09T11:40:27.545Z,98200.38
2022-09-09T11:42:29.216Z,98220.03
2022-09-09T11:44:32.230Z,98209.94
2022-09-09T11:46:40.992Z,98213.13
2022-09-09T11:48:46.672Z,98209.50
2022-09-09T11:51:01.327Z,98205.09
2022-09-09T11:53:22.120Z,98210.31
2022-09-09T11:55:35.789Z,98207.91
2022-09-09T11:57:38.035Z,98200.28
2022-09-09T11:59:39.647Z,98195.84
2022-09-09T12:01:45.163Z,98200.28
2022-09-09T12:03:52.447Z,98199.50
2022-09-09T12:05:54.662Z,98194.72
2022-09-09T12:07:59.860Z,98195.56
2022-09-09T12:10:23.365Z,98203.72
2022-09-09T12:12:28.299Z,98209.41
2022-09-09T12:14:44.410Z,98197.75
2022-09-09T12:16:46.675Z,98206.19
2022-09-09T12:18:48.565Z,98214.22
2022-09-09T12:21:19.592Z,98225.47
2022-09-09T12:23:38.865Z,98242.22
2022-09-09T12:25:55.137Z,98244.97
2022-09-09T12:28:06.226Z,98243.66
2022-09-09T12:30:27.507Z,98236.38
2022-09-09T12:32:31.058Z,98233.06
2022-09-09T12:35:00.999Z,98226.56
2022-09-09T12:37:28.332Z,98218.81
2022-09-09T12:39:46.779Z,98223.16
2022-09-09T12:41:57.637Z,98225.44
2022-09-09T12:44:10.683Z,98222.94
2022-09-09T12:46:24.337Z,98234.06
2022-09-09T12:48:33.061Z,98237.97
2022-09-09T12:50:39.745Z,98241.47
2022-09-09T12:52:41.513Z,98251.34
2022-09-09T12:54:48.270Z,98250.38
2022-09-09T12:56:50.608Z,98247.41
2022-09-09T12:58:53.655Z,98251.28
2022-09-09T13:00:58.268Z,98245.06
2022-09-09T13:03:15.104Z,98262.16
2022-09-09T13:05:25.265Z,98274.38
2022-09-09T13:07:29.532Z,98271.78
2022-09-09T13:09:31.177Z,98267.22
2022-09-09T13:11:59.459Z,98265.84
2022-09-09T13:14:05.608Z,98265.06
2022-09-09T13:16:20.052Z,98252.63
2022-09-09T13:18:35.274Z,98246.28
2022-09-09T13:20:36.750Z,98245.22
2022-09-09T13:22:41.553Z,98242.16
2022-09-09T13:24:43.681Z,98236.28
2022-09-09T13:26:58.645Z,98226.41
2022-09-09T13:29:21.635Z,98229.41
2022-09-09T13:31:29.112Z,98226.38
2022-09-09T13:33:45.328Z,98217.28
2022-09-09T13:35:51.562Z,98217.44
2022-09-09T13:37:53.017Z,98206.75
2022-09-09T13:39:55.655Z,98208.91
2022-09-09T13:41:58.869Z,98205.78
2022-09-09T13:44:02.505Z,98200.72
2022-09-09T13:46:27.391Z,98201.97
2022-09-09T13:48:31.123Z,98208.09
2022-09-09T13:50:32.768Z,98193.72
2022-09-09T13:52:34.475Z,98189.44
2022-09-09T13:54:36.407Z,98191.56
2022-09-09T13:56:41.590Z,98191.22
2022-09-09T13:58:43.217Z,98185.31
2022-09-09T14:00:47.698Z,98171.34
2022-09-09T14:02:50.150Z,98169.38
2022-09-09T14:04:55.917Z,98171.44
2022-09-09T14:06:57.582Z,98171.50
2022-09-09T14:08:59.827Z,98169.16
2022-09-09T14:11:01.434Z,98167.16
2022-09-09T14:13:03.014Z,98171.63
2022-09-09T14:15:05.986Z,98166.81
2022-09-09T14:17:08.251Z,98169.69
2022-09-09T14:19:10.645Z,98161.25
2022-09-09T14:21:13.408Z,98173.72
2022-09-09T14:23:16.510Z,98170.91
2022-09-09T14:25:22.053Z,98172.13
2022-09-09T14:27:23.522Z,98174.09
2022-09-09T14:29:28.094Z,98178.03
2022-09-09T14:31:31.158Z,98169.56
2022-09-09T14:33:32.903Z,98163.44
2022-09-09T14:35:34.628Z,98164.59
2022-09-09T14:37:36.324Z,98163.31
2022-09-09T14:39:38.365Z,98166.09
2022-09-09T14:41:40.369Z,98165.63
2022-09-09T14:43:45.841Z,98169.16
2022-09-09T14:45:49.054Z,98171.50
2022-09-09T14:47:50.676Z,98169.78
2022-09-09T14:49:52.888Z,98168.53
2022-09-09T14:51:54.438Z,98167.25
2022-09-09T14:53:58.374Z,98173.59
2022-09-09T14:56:15.366Z,98167.09
2022-09-09T14:58:16.898Z,98176.25
2022-09-09T15:00:18.729Z,98162.56
2022-09-09T15:02:20.565Z,98184.19
2022-09-09T15:04:22.765Z,98175.66
2022-09-09T15:06:25.252Z,98176.81
2022-09-09T15:08:27.242Z,98168.28
2022-09-09T15:10:28.894Z,98169.03
2022-09-09T15:12:30.981Z,98165.31
2022-09-09T15:14:32.676Z,98168.41
2022-09-09T15:16:34.830Z,98167.50
2022-09-09T15:18:37.412Z,98164.97
2022-09-09T15:20:40.397Z,98160.47
2022-09-09T15:22:45.605Z,98168.78
2022-09-09T15:24:47.213Z,98166.22
2022-09-09T15:26:49.312Z,98172.53
2022-09-09T15:28:51.794Z,98169.63
2022-09-09T15:30:54.971Z,98165.91
2022-09-09T15:32:56.697Z,98170.59
2022-09-09T15:34:58.518Z,98173.28
2022-09-09T15:37:00.990Z,98163.94
2022-09-09T15:39:05.779Z,98175.06
2022-09-09T15:41:10.011Z,98161.69
2022-09-09T15:43:11.791Z,98168.41
2022-09-09T15:45:14.811Z,98166.31
2022-09-09T15:47:18.383Z,98162.63
2022-09-09T15:49:27.345Z,98168.19
2022-09-09T15:51:44.931Z,98160.09
2022-09-09T15:53:47.386Z,98161.66
2022-09-09T15:55:56.682Z,98161.56
2022-09-09T15:57:58.710Z,98154.28
2022-09-09T16:00:01.217Z,98154.22
2022-09-09T16:02:03.187Z,98156.19
2022-09-09T16:04:05.171Z,98155.75
2022-09-09T16:06:07.474Z,98161.31
2022-09-09T16:08:09.209Z,98161.69
2022-09-09T16:10:11.974Z,98154.00
2022-09-09T16:12:14.102Z,98164.78
2022-09-09T16:14:16.774Z,98157.13
2022-09-09T16:16:22.852Z,98162.28
2022-09-09T16:18:24.492Z,98163.38
2022-09-09T16:20:27.821Z,98160.97
2022-09-09T16:22:29.278Z,98165.66
2022-09-09T16:24:31.173Z,98162.34
2022-09-09T16:26:34.851Z,98163.09
2022-09-09T16:28:36.343Z,98161.41
2022-09-09T16:30:38.308Z,98161.69
2022-09-09T16:32:39.766Z,98171.19
2022-09-09T16:34:47.704Z,98179.50
2022-09-09T16:36:55.192Z,98182.56
2022-09-09T16:38:59.908Z,98178.06
2022-09-09T16:41:01.874Z,98179.97
2022-09-09T16:43:06.512Z,98183.88
2022-09-09T16:45:08.599Z,98185.78
2022-09-09T16:47:10.131Z,98189.19
2022-09-09T16:49:14.450Z,98200.31
2022-09-09T16:51:25.282Z,98197.34
2022-09-09T16:53:26.755Z,98218.44
2022-09-09T16:55:28.516Z,98220.34
2022-09-09T16:57:32.772Z,98229.47
2022-09-09T16:59:34.244Z,98223.72
2022-09-09T17:01:43.203Z,98225.63
2022-09-09T17:03:44.870Z,98235.56
2022-09-09T17:05:47.039Z,98239.41
2022-09-09T17:07:48.701Z,98246.53
2022-09-09T17:09:55.241Z,98243.56
2022-09-09T17:11:57.225Z,98255.84
2022-09-09T17:13:59.315Z,98251.78
2022-09-09T17:16:05.701Z,98254.03
2022-09-09T17:18:07.236Z,98256.34
2022-09-09T17:20:10.590Z,98265.81
2022-09-09T17:22:17.061Z,98251.66
2022-09-09T17:24:19.582Z,98259.94
2022-09-09T17:26:23.749Z,98259.06
2022-09-09T17:28:28.393Z,98254.19
2022-09-09T17:30:29.929Z,98254.88
2022-09-09T17:32:31.442Z,98255.97
2022-09-09T17:34:35.778Z,98258.66
2022-09-09T17:36:38.503Z,98255.31
2022-09-09T17:38:40.369Z,98260.81
2022-09-09T17:40:44.586Z,98262.66
2022-09-09T17:42:46.896Z,98260.13
2022-09-09T17:44:48.893Z,98258.41
2022-09-09T17:46:50.999Z,98264.63
2022-09-09T17:48:57.187Z,98262.50
2022-09-09T17:51:02.461Z,98259.97
2022-09-09T17:53:04.361Z,98267.91
2022-09-09T17:55:08.010Z,98265.69
2022-09-09T17:57:12.628Z,98271.19
2022-09-09T17:59:15.992Z,98277.03
2022-09-09T18:01:23.304Z,98280.06
2022-09-09T18:03:27.421Z,98281.47
2022-09-09T18:05:30.217Z,98277.28
2022-09-09T18:07:32.296Z,98280.31
2022-09-09T18:09:34.938Z,98280.09
2022-09-09T18:11:42.548Z,98293.47
2022-09-09T18:13:44.409Z,98290.91
2022-09-09T18:15:49.565Z,98293.63
2022-09-09T18:17:51.469Z,98290.56
2022-09-09T18:19:53.029Z,98299.63
2022-09-09T18:21:57.477Z,98299.88
2022-09-09T18:24:04.932Z,98302.06
2022-09-09T18:26:11.979Z,98302.66
2022-09-09T18:28:13.861Z,98308.94
2022-09-09T18:30:16.218Z,98308.81
2022-09-09T18:32:22.979Z,98315.44
2022-09-09T18:34:28.362Z,98312.88
2022-09-09T18:36:32.705Z,98319.50
2022-09-09T18:38:36.931Z,98320.19
2022-09-09T18:40:41.241Z,98313.66
2022-09-09T18:42:42.744Z,98311.91
2022-09-09T18:44:44.356Z,98308.53
2022-09-09T18:46:46.970Z,98303.69
2022-09-09T18:48:50.553Z,98310.75
2022-09-09T18:50:52.430Z,98313.00
2022-09-09T18:52:54.101Z,98308.84
2022-09-09T18:54:57.808Z,98310.34
2022-09-09T18:57:00.904Z,98314.94
2022-09-09T18:59:05.182Z,98322.03
2022-09-09T19:01:13.728Z,98317.84
2022-09-09T19:03:15.549Z,98327.69
2022-09-09T19:05:17.182Z,98324.78
2022-09-09T19:07:19.654Z,98325.94
2022-09-09T19:09:28.485Z,98325.66
2022-09-09T19:11:33.603Z,98323.25
2022-09-09T19:13:36.317Z,98325.09
2022-09-09T19:15:41.738Z,98334.44
2022-09-09T19:17:43.279Z,98345.94
2022-09-09T19:19:44.929Z,98343.50
2022-09-09T19:21:48.320Z,98343.81
2022-09-09T19:23:56.624Z,98350.41
2022-09-09T19:26:02.232Z,98353.06
2022-09-09T19:28:06.216Z,98356.19
2022-09-09T19:30:08.659Z,98358.81
2022-09-09T19:34:32.822Z,98363.81
2022-09-09T19:36:34.532Z,98369.38
2022-09-09T19:38:36.704Z,98366.06
2022-09-09T19:40:41.237Z,98373.94
2022-09-09T19:42:43.258Z,98366.25
2022-09-09T19:44:46.265Z,98361.88
2022-09-09T19:46:50.941Z,98371.34
2022-09-09T19:48:52.577Z,98370.06
2022-09-09T19:50:54.561Z,98369.25
2022-09-09T19:52:56.186Z,98372.72
2022-09-09T19:54:57.831Z,98375.00
2022-09-09T19:57:03.081Z,98372.56
2022-09-09T19:59:06.674Z,98362.59
2022-09-09T20:01:13.955Z,98365.25
2022-09-09T20:03:19.953Z,98381.13
2022-09-09T20:05:22.278Z,98383.75
2022-09-09T20:07:24.004Z,98374.59
2022-09-09T20:09:28.983Z,98384.91
2022-09-09T20:11:30.690Z,98385.59
2022-09-09T20:13:38.894Z,98380.69
2022-09-09T20:15:40.464Z,98386.09
2022-09-09T20:17:42.610Z,98394.78
2022-09-09T20:19:45.217Z,98380.41
2022-09-09T20:21:50.447Z,98387.47
2022-09-09T20:23:55.996Z,98381.75
2022-09-09T20:26:08.860Z,98378.50
2022-09-09T20:28:10.867Z,98379.63
2022-09-09T20:30:13.510Z,98376.84
2022-09-09T20:32:17.924Z,98378.84
2022-09-09T20:34:22.248Z,98380.31
2022-09-09T20:36:30.204Z,98379.03
2022-09-09T20:38:35.328Z,98376.91
2022-09-09T20:40:38.732Z,98385.09
2022-09-09T20:42:42.871Z,98382.66
2022-09-09T20:44:44.603Z,98379.41
2022-09-09T20:46:48.759Z,98387.25
2022-09-09T20:49:02.294Z,98379.25
2022-09-09T20:51:09.850Z,98371.91
2022-09-09T20:53:11.380Z,98386.94
2022-09-09T20:55:16.493Z,98372.41
2022-09-09T20:57:21.968Z,98369.13
2022-09-09T20:59:27.965Z,98368.19
2022-09-09T21:01:29.709Z,98371.28
2022-09-09T21:03:37.335Z,98375.88
2022-09-09T21:05:39.006Z,98371.00
2022-09-09T21:07:40.463Z,98371.66
2022-09-09T21:09:42.285Z,98375.59
2022-09-09T21:11:43.802Z,98370.69
2022-09-09T21:13:48.093Z,98370.53
2022-09-09T21:15:51.248Z,98364.03
2022-09-09T21:17:54.694Z,98369.75
2022-09-09T21:19:57.426Z,98359.78
2022-09-09T21:22:01.904Z,98360.94
2022-09-09T21:24:03.833Z,98368.28
2022-09-09T21:26:07.566Z,98361.44
2022-09-09T21:28:10.119Z,98366.88
2022-09-09T21:30:12.446Z,98358.38
2022-09-09T21:32:14.125Z,98367.50
2022-09-09T21:34:18.594Z,98374.88
2022-09-09T21:36:25.226Z,98369.66
2022-09-09T21:38:26.820Z,98366.72
2022-09-09T21:40:28.549Z,98367.88
2022-09-09T21:42:30.127Z,98368.53
2022-09-09T21:44:31.760Z,98366.41
2022-09-09T21:46:33.505Z,98377.03
2022-09-09T21:48:35.369Z,98378.50
2022-09-09T21:50:42.065Z,98371.31
2022-09-09T21:52:43.971Z,98390.22
2022-09-09T21:54:45.622Z,98397.25
2022-09-09T21:56:50.678Z,98394.81
2022-09-09T21:59:03.680Z,98408.69
2022-09-09T22:01:10.177Z,98403.44
2022-09-09T22:03:13.492Z,98410.81
2022-09-09T22:05:15.221Z,98405.91
2022-09-09T22:07:17.054Z,98412.09
2022-09-09T22:09:20.857Z,98404.13
2022-09-09T22:11:22.936Z,98399.56
2022-09-09T22:13:24.501Z,98401.31
2022-09-09T22:15:26.173Z,98396.13
2022-09-09T22:17:27.919Z,98397.25
2022-09-09T22:19:29.612Z,98401.50
2022-09-09T22:21:33.056Z,98401.34
2022-09-09T22:23:36.440Z,98401.66
2022-09-09T22:25:47.271Z,98406.72
2022-09-09T22:27:48.740Z,98414.06
2022-09-09T22:29:51.359Z,98406.06
2022-09-09T22:31:59.580Z,98404.44
2022-09-09T22:34:01.045Z,98407.53
2022-09-09T22:36:02.949Z,98399.88
2022-09-09T22:38:04.575Z,98401.00
2022-09-09T22:40:06.990Z,98407.53
2022-09-09T22:42:08.796Z,98407.84
2022-09-09T22:44:10.494Z,98415.03
2022-09-09T22:46:16.131Z,98406.22
2022-09-09T22:48:19.140Z,98406.53
2022-09-09T22:50:20.733Z,98427.91
2022-09-09T22:52:22.677Z,98422.69
2022-09-09T22:54:24.376Z,98414.69
2022-09-09T22:56:26.475Z,98421.69
2022-09-09T22:58:34.165Z,98426.75
2022-09-09T23:00:35.743Z,98423.47
2022-09-09T23:02:40.892Z,98423.81
2022-09-09T23:04:42.804Z,98415.81
2022-09-09T23:06:47.809Z,98422.84
2022-09-09T23:09:01.439Z,98418.75
2022-09-09T23:11:11.194Z,98414.63
2022-09-09T23:13:12.925Z,98411.03
2022-09-09T23:15:14.583Z,98414.13
2022-09-09T23:17:16.276Z,98405.50
2022-09-09T23:19:17.840Z,98405.66
2022-09-09T23:21:22.745Z,98410.72
2022-09-09T23:23:25.036Z,98411.00
2022-09-09T23:25:27.839Z,98404.97
2022-09-09T23:27:31.031Z,98407.25
2022-09-09T23:29:34.102Z,98402.03
2022-09-09T23:31:38.588Z,98405.94
2022-09-09T23:33:41.661Z,98404.00
2022-09-09T23:35:48.557Z,98407.06
2022-09-09T23:37:50.060Z,98406.91
2022-09-09T23:39:51.555Z,98406.09
2022-09-09T23:41:56.719Z,98411.16
2022-09-09T23:43:58.458Z,98405.59
2022-09-09T23:46:01.245Z,98412.28
2022-09-09T23:48:03.259Z,98409.03
2022-09-09T23:50:07.692Z,98412.09
2022-09-09T23:52:09.301Z,98400.53
2022-09-09T23:54:18.344Z,98407.72
2022-09-09T23:56:21.615Z,98408.34
2022-09-09T23:58:25.893Z,98405.09
